WCOM7: Spring River, Waco, MO

Data processed at Thu May 23 2019 23:50


All information presented herein is the property of the government of the United States of America and may be revised or deleted at any time without prior notice.
Dissemination of this information without the expressed written consent of the Public Affairs Office, Tulsa District U.S. Army Corps of Engineers is strictly prohibited.
These data are gathered electronically and, as presented, have not undergone any form of quality control. These data are not guaranteed to be valid or correct.
Go to home page.
Go to station list.
Go to home page.

Upstream stations:

Downstream station:
Previous Day
Next Day
Current Day
    
SHEF ID:       WCOM7     Spring River near Waco, MO
STATION TYPE:  
Regulating: Stage =    19.00, Flow =    17743

               PRECIP     STAGE  RIV-FLOW  BAT-LOAD
                   in        ft       cfs      volt
              Ccp-Rev   Ccp-Rev   Ccp-Rev   Ccp-Rev
(US/Central)
05/23 00:00      0.00     25.06     36251     12.83
05/23 01:00      0.07     24.76     34940     12.83
05/23 02:00      0.01     24.71     34724     12.77
05/23 03:00      0.02     24.42     33492     12.77
05/23 04:00      0.01     24.27     32866     12.77
05/23 05:00      0.27     24.27     32866     12.71
05/23 06:00      1.16     24.32     33074     12.71
05/23 07:00      0.20     24.27     32866     12.71
05/23 08:00      0.14     24.22     32659     12.71
05/23 09:00      0.00     24.46     33660     12.77
05/23 10:00      0.06     24.41     33450     12.77
05/23 11:00      0.05     24.40     33408     12.83
05/23 12:00      0.00     24.39     33366     13.36
05/23 13:00      0.00     24.50     33829     13.64
05/23 14:00      0.00     24.51     33871     13.71
05/23 15:00      0.00     24.66     34509     13.94
05/23 16:00      0.00     24.72     34767     13.88
05/23 17:00      0.00     24.71     34724     13.83
05/23 18:00      0.00     24.76     34940     13.59
05/23 19:00      0.00     24.77     34983     13.53
05/23 20:00      0.00     24.68     34595     13.30
05/23 21:00      0.00     24.78     35026     12.71
05/23 22:00      0.00     24.92     35635     12.89
05/23 23:00      0.00     24.96     35810     12.89